createdAt,value
2022-11-05T00:00:39.163Z,100562.13
2022-11-05T00:03:41.101Z,100565.19
2022-11-05T00:06:43.017Z,100566.34
2022-11-05T00:09:29.678Z,100574.13
2022-11-05T00:12:33.110Z,100575.66
2022-11-05T00:15:35.504Z,100578.28
2022-11-05T00:18:21.606Z,100572.44
2022-11-05T00:21:05.768Z,100584.44
2022-11-05T00:24:07.846Z,100577.50
2022-11-05T00:26:51.203Z,100591.94
2022-11-05T00:29:34.995Z,100586.28
2022-11-05T00:32:18.637Z,100600.31
2022-11-05T00:35:02.025Z,100596.19
2022-11-05T00:37:50.069Z,100602.78
2022-11-05T00:40:34.033Z,100602.13
2022-11-05T00:43:35.916Z,100597.47
2022-11-05T00:46:19.272Z,100604.19
2022-11-05T00:49:24.810Z,100605.00
2022-11-05T00:52:26.679Z,100609.97
2022-11-05T00:55:10.031Z,100614.44
2022-11-05T00:57:53.754Z,100620.22
2022-11-05T01:00:42.606Z,100621.31
2022-11-05T01:03:36.689Z,100626.75
2022-11-05T01:06:20.116Z,100628.72
2022-11-05T01:09:03.613Z,100635.72
2022-11-05T01:11:46.968Z,100635.25
2022-11-05T01:14:30.556Z,100635.59
2022-11-05T01:17:13.985Z,100635.44
2022-11-05T01:19:57.467Z,100639.91
2022-11-05T01:22:40.863Z,100644.06
2022-11-05T01:25:24.648Z,100634.28
2022-11-05T01:28:09.663Z,100641.81
2022-11-05T01:30:57.325Z,100646.63
2022-11-05T01:33:40.737Z,100645.03
2022-11-05T01:36:24.126Z,100649.69
2022-11-05T01:39:07.479Z,100650.16
2022-11-05T01:41:50.847Z,100648.41
2022-11-05T01:45:01.987Z,100644.84
2022-11-05T01:48:11.672Z,100649.84
2022-11-05T01:51:06.944Z,100645.50
2022-11-05T01:54:06.549Z,100647.44
2022-11-05T01:56:57.553Z,100653.34
2022-11-05T01:59:52.380Z,100658.97
2022-11-05T02:02:36.091Z,100661.84
2022-11-05T02:05:19.777Z,100666.94
2022-11-05T02:08:03.861Z,100669.84
2022-11-05T02:10:48.588Z,100668.91
2022-11-05T02:13:32.280Z,100682.31
2022-11-05T02:16:31.545Z,100671.13
2022-11-05T02:20:11.608Z,100678.50
2022-11-05T02:23:34.793Z,100683.09
2022-11-05T02:26:55.224Z,100690.50
2022-11-05T02:30:05.322Z,100690.66
2022-11-05T02:33:15.259Z,100697.72
2022-11-05T02:36:32.588Z,100700.16
2022-11-05T02:39:39.094Z,100703.72
2022-11-05T02:42:56.722Z,100710.66
2022-11-05T02:46:11.588Z,100715.03
2022-11-05T02:49:05.999Z,100717.25
2022-11-05T02:52:19.280Z,100723.00
2022-11-05T02:55:30.822Z,100711.63
2022-11-05T02:58:14.766Z,100719.00
2022-11-05T03:00:59.253Z,100731.84
2022-11-05T03:03:53.706Z,100731.66
2022-11-05T03:07:04.552Z,100737.06
2022-11-05T03:10:05.296Z,100739.16
2022-11-05T03:13:33.534Z,100747.84
2022-11-05T03:17:06.305Z,100749.28
2022-11-05T03:20:37.536Z,100753.06
2022-11-05T03:23:44.765Z,100760.19
2022-11-05T03:26:44.531Z,100768.97
2022-11-05T03:29:36.072Z,100768.16
2022-11-05T03:32:22.582Z,100769.47
2022-11-05T03:35:18.683Z,100767.25
2022-11-05T03:38:13.482Z,100765.47
2022-11-05T03:41:04.988Z,100766.25
2022-11-05T03:43:57.906Z,100773.78
2022-11-05T03:46:49.865Z,100778.59
2022-11-05T03:50:15.206Z,100787.88
2022-11-05T03:53:10.296Z,100788.06
2022-11-05T03:56:08.059Z,100792.06
2022-11-05T03:58:58.865Z,100792.66
2022-11-05T04:01:43.148Z,100798.97
2022-11-05T04:04:28.519Z,100795.13
2022-11-05T04:07:31.728Z,100804.56
2022-11-05T04:10:34.511Z,100806.47
2022-11-05T04:13:26.886Z,100808.56
2022-11-05T04:16:28.786Z,100813.00
2022-11-05T04:19:12.255Z,100826.69
2022-11-05T04:22:14.085Z,100815.28
2022-11-05T04:24:57.537Z,100814.75
2022-11-05T04:27:41.025Z,100820.38
2022-11-05T04:30:24.412Z,100831.47
2022-11-05T04:33:12.804Z,100837.03
2022-11-05T04:35:56.538Z,100837.47
2022-11-05T04:38:39.921Z,100835.38
2022-11-05T04:41:23.343Z,100838.44
2022-11-05T04:44:06.718Z,100836.34
2022-11-05T04:46:50.130Z,100835.50
2022-11-05T04:49:33.566Z,100837.28
2022-11-05T04:52:17.980Z,100840.38
2022-11-05T04:55:01.342Z,100849.19
2022-11-05T04:57:49.410Z,100846.56
2022-11-05T05:00:32.968Z,100844.75
2022-11-05T05:03:16.583Z,100838.69
2022-11-05T05:06:03.722Z,100834.44
2022-11-05T05:08:49.043Z,100837.88
2022-11-05T05:11:32.505Z,100842.03
2022-11-05T05:14:16.005Z,100850.44
2022-11-05T05:16:59.597Z,100847.34
2022-11-05T05:20:01.921Z,100853.72
2022-11-05T05:22:53.266Z,100853.34
2022-11-05T05:25:36.851Z,100850.31
2022-11-05T05:28:20.361Z,100857.94
2022-11-05T05:31:03.986Z,100858.25
2022-11-05T05:33:47.618Z,100865.38
2022-11-05T05:36:31.899Z,100865.31
2022-11-05T05:39:15.407Z,100869.47
2022-11-05T05:41:58.927Z,100879.97
2022-11-05T05:44:42.729Z,100882.44
2022-11-05T05:47:26.408Z,100902.53
2022-11-05T05:50:09.943Z,100905.34
2022-11-05T05:52:54.028Z,100902.00
2022-11-05T05:55:37.511Z,100912.09
2022-11-05T05:58:21.074Z,100910.81
2022-11-05T06:01:18.320Z,100914.47
2022-11-05T06:04:02.629Z,100919.53
2022-11-05T06:06:47.120Z,100923.00
2022-11-05T06:09:30.636Z,100925.41
2022-11-05T06:12:14.140Z,100931.63
2022-11-05T06:14:57.949Z,100939.94
2022-11-05T06:17:44.397Z,100940.78
2022-11-05T06:20:27.966Z,100946.13
2022-11-05T06:23:11.874Z,100945.91
2022-11-05T06:26:01.513Z,100946.31
2022-11-05T06:28:46.280Z,100962.00
2022-11-05T06:38:05.533Z,100973.97
2022-11-05T06:40:49.056Z,100981.22
2022-11-05T06:43:32.585Z,100985.72
2022-11-05T06:46:15.943Z,100990.19
2022-11-05T06:49:05.640Z,100989.25
2022-11-05T06:51:49.324Z,100992.09
2022-11-05T06:54:32.957Z,100996.78
2022-11-05T06:57:16.528Z,101006.44
2022-11-05T07:00:02.406Z,101012.03
2022-11-05T07:02:50.393Z,101004.44
2022-11-05T07:05:38.730Z,101013.31
2022-11-05T07:08:22.272Z,101015.84
2022-11-05T07:11:06.569Z,101011.09
2022-11-05T07:13:50.015Z,101020.66
2022-11-05T07:16:33.507Z,101030.56
2022-11-05T07:19:16.892Z,101032.66
2022-11-05T07:22:00.287Z,101032.72
2022-11-05T07:24:47.214Z,101037.09
2022-11-05T07:27:30.627Z,101032.22
2022-11-05T07:30:13.965Z,101028.03
2022-11-05T07:32:57.683Z,101033.09
2022-11-05T07:35:41.034Z,101030.13
2022-11-05T07:38:25.045Z,101039.44
2022-11-05T07:41:08.483Z,101050.97
2022-11-05T07:43:51.868Z,101053.63
2022-11-05T07:46:35.283Z,101051.03
2022-11-05T07:49:18.914Z,101047.94
2022-11-05T07:52:02.279Z,101056.19
2022-11-05T07:54:45.655Z,101050.06
2022-11-05T07:57:29.151Z,101063.34
2022-11-05T08:00:22.616Z,101061.63
2022-11-05T08:03:16.257Z,101055.19
2022-11-05T08:06:00.141Z,101067.97
2022-11-05T08:08:43.718Z,101064.94
2022-11-05T08:11:27.171Z,101064.69
2022-11-05T08:14:10.546Z,101069.63
2022-11-05T08:16:53.907Z,101075.28
2022-11-05T08:19:37.243Z,101084.03
2022-11-05T08:22:21.078Z,101103.47
2022-11-05T08:25:06.954Z,101110.94
2022-11-05T08:28:00.183Z,101099.31
2022-11-05T08:30:43.659Z,101101.09
2022-11-05T08:33:28.028Z,101109.03
2022-11-05T08:36:11.420Z,101113.56
2022-11-05T08:38:54.962Z,101113.47
2022-11-05T08:41:38.477Z,101111.75
2022-11-05T08:44:22.209Z,101107.09
2022-11-05T08:47:05.608Z,101103.78
2022-11-05T08:49:49.241Z,101104.25
2022-11-05T08:52:32.697Z,101113.59
2022-11-05T08:55:19.061Z,101107.06
2022-11-05T08:58:06.297Z,101114.84
2022-11-05T09:00:50.268Z,101118.91
2022-11-05T09:03:33.938Z,101117.72
2022-11-05T09:06:17.631Z,101135.69
2022-11-05T09:09:00.985Z,101129.47
2022-11-05T09:12:10.558Z,101134.59
2022-11-05T09:14:49.070Z,101139.16
2022-11-05T09:17:32.541Z,101145.28
2022-11-05T09:20:16.168Z,101147.81
2022-11-05T09:23:00.142Z,101153.88
2022-11-05T09:25:44.345Z,101154.34
2022-11-05T09:28:28.404Z,101150.44
2022-11-05T09:31:12.669Z,101157.25
2022-11-05T09:33:56.099Z,101154.91
2022-11-05T09:36:39.479Z,101159.50
2022-11-05T09:39:23.156Z,101153.38
2022-11-05T09:42:09.798Z,101158.19
2022-11-05T09:45:01.968Z,101161.28
2022-11-05T09:47:55.604Z,101162.78
2022-11-05T09:50:46.287Z,101159.03
2022-11-05T09:53:29.793Z,101172.47
2022-11-05T09:56:33.906Z,101173.81
2022-11-05T09:59:27.652Z,101168.78
2022-11-05T10:02:25.898Z,101175.06
2022-11-05T10:05:13.904Z,101175.06
2022-11-05T10:08:18.250Z,101183.53
2022-11-05T10:11:17.088Z,101182.53
2022-11-05T10:14:15.200Z,101175.72
2022-11-05T10:17:15.871Z,101187.59
2022-11-05T10:20:38.197Z,101198.38
2022-11-05T10:23:22.920Z,101190.31
2022-11-05T10:26:14.249Z,101196.56
2022-11-05T10:28:58.116Z,101200.06
2022-11-05T10:31:43.512Z,101198.53
2022-11-05T10:34:34.190Z,101201.03
2022-11-05T10:37:20.447Z,101203.34
2022-11-05T10:40:36.291Z,101206.25
2022-11-05T10:43:40.911Z,101215.56
2022-11-05T10:46:50.054Z,101210.19
2022-11-05T10:49:59.573Z,101216.03
2022-11-05T10:52:51.528Z,101223.94
2022-11-05T10:55:41.267Z,101227.78
2022-11-05T10:58:35.507Z,101220.88
2022-11-05T11:01:19.366Z,101220.19
2022-11-05T11:04:15.345Z,101223.88
2022-11-05T11:07:00.380Z,101221.13
2022-11-05T11:09:49.762Z,101219.09
2022-11-05T11:12:43.066Z,101219.09
2022-11-05T11:15:32.630Z,101213.13
2022-11-05T11:18:40.026Z,101221.16
2022-11-05T11:21:24.554Z,101212.38
2022-11-05T11:24:23.221Z,101219.53
2022-11-05T11:27:23.667Z,101217.25
2022-11-05T11:30:07.684Z,101217.34
2022-11-05T11:32:51.073Z,101229.13
2022-11-05T11:35:38.797Z,101232.25
2022-11-05T11:38:24.323Z,101234.53
2022-11-05T11:41:27.949Z,101226.31
2022-11-05T11:44:21.385Z,101223.25
2022-11-05T11:47:14.367Z,101221.94
2022-11-05T11:50:01.224Z,101219.03
2022-11-05T11:52:45.081Z,101217.44
2022-11-05T11:55:28.628Z,101217.56
2022-11-05T11:58:12.046Z,101219.94
2022-11-05T12:01:09.402Z,101225.09
2022-11-05T12:04:24.231Z,101225.44
2022-11-05T12:07:24.650Z,101229.19
2022-11-05T12:10:30.079Z,101237.06
2022-11-05T12:13:19.363Z,101228.97
2022-11-05T12:16:17.506Z,101227.41
2022-11-05T12:19:20.021Z,101224.22
2022-11-05T12:22:25.110Z,101223.22
2022-11-05T12:25:55.581Z,101224.56
2022-11-05T12:32:22.063Z,101235.22
2022-11-05T12:35:31.547Z,101230.81
2022-11-05T12:38:33.063Z,101234.56
2022-11-05T12:42:02.907Z,101235.03
2022-11-05T12:44:52.242Z,101228.59
2022-11-05T12:47:52.833Z,101231.53
2022-11-05T12:50:51.124Z,101231.88
2022-11-05T12:54:17.460Z,101234.41
2022-11-05T12:57:04.187Z,101232.63
2022-11-05T13:00:21.105Z,101231.13
2022-11-05T13:03:40.703Z,101232.75
2022-11-05T13:06:41.926Z,101235.13
2022-11-05T13:09:55.432Z,101231.00
2022-11-05T13:12:42.583Z,101226.06
2022-11-05T13:15:37.358Z,101231.75
2022-11-05T13:18:52.292Z,101241.59
2022-11-05T13:21:39.425Z,101236.09
2022-11-05T13:24:59.171Z,101240.69
2022-11-05T13:28:07.260Z,101252.09
2022-11-05T13:30:57.926Z,101247.38
2022-11-05T13:33:49.735Z,101243.91
2022-11-05T13:37:07.769Z,101248.66
2022-11-05T13:39:59.850Z,101260.94
2022-11-05T13:43:13.694Z,101264.75
2022-11-05T13:46:06.427Z,101270.06
2022-11-05T13:49:24.301Z,101276.78
2022-11-05T13:52:47.986Z,101264.41
2022-11-05T13:56:12.621Z,101271.63
2022-11-05T13:59:38.004Z,101279.97
2022-11-05T14:02:28.676Z,101274.03
2022-11-05T14:05:32.456Z,101280.31
2022-11-05T14:08:27.667Z,101271.97
2022-11-05T14:11:36.321Z,101280.50
2022-11-05T14:14:26.155Z,101276.13
2022-11-05T14:17:09.378Z,101280.66
2022-11-05T14:20:04.841Z,101272.94
2022-11-05T14:22:48.269Z,101281.31
2022-11-05T14:25:34.493Z,101275.19
2022-11-05T14:28:36.387Z,101287.25
2022-11-05T14:31:19.846Z,101287.09
2022-11-05T14:34:21.095Z,101287.88
2022-11-05T14:37:10.494Z,101285.94
2022-11-05T14:39:56.094Z,101282.91
2022-11-05T14:42:39.563Z,101289.97
2022-11-05T14:45:30.304Z,101288.00
2022-11-05T14:48:37.566Z,101288.00
2022-11-05T14:51:45.852Z,101301.88
2022-11-05T14:54:52.329Z,101293.81
2022-11-05T14:57:44.578Z,101306.69
2022-11-05T15:00:36.626Z,101306.06
2022-11-05T15:04:00.652Z,101312.63
2022-11-05T15:07:03.030Z,101311.66
2022-11-05T15:10:05.812Z,101318.28
2022-11-05T15:13:01.978Z,101314.25
2022-11-05T15:15:50.825Z,101314.41
2022-11-05T15:18:45.690Z,101315.69
2022-11-05T15:21:36.326Z,101315.88
2022-11-05T15:24:21.701Z,101322.44
2022-11-05T15:27:25.908Z,101321.16
2022-11-05T15:30:23.553Z,101318.25
2022-11-05T15:33:25.576Z,101314.34
2022-11-05T15:36:30.963Z,101325.31
2022-11-05T15:39:39.700Z,101320.88
2022-11-05T15:42:26.121Z,101318.22
2022-11-05T15:45:20.832Z,101315.94
2022-11-05T15:48:19.900Z,101319.00
2022-11-05T15:51:03.872Z,101322.06
2022-11-05T15:56:58.907Z,101323.88
2022-11-05T15:59:47.199Z,101326.06
2022-11-05T16:02:38.162Z,101317.09
2022-11-05T16:05:25.313Z,101324.09
2022-11-05T16:08:20.461Z,101322.31
2022-11-05T16:11:04.119Z,101332.69
2022-11-05T16:13:47.734Z,101330.50
2022-11-05T16:16:34.203Z,101330.94
2022-11-05T16:19:41.033Z,101326.91
2022-11-05T16:22:24.855Z,101346.38
2022-11-05T16:25:41.734Z,101340.03
2022-11-05T16:28:29.440Z,101343.03
2022-11-05T16:31:12.872Z,101343.19
2022-11-05T16:33:58.035Z,101339.31
2022-11-05T16:36:41.485Z,101346.66
2022-11-05T16:39:25.753Z,101351.22
2022-11-05T16:42:39.052Z,101342.41
2022-11-05T16:45:25.314Z,101355.25
2022-11-05T16:48:13.343Z,101355.06
2022-11-05T16:50:57.319Z,101363.78
2022-11-05T16:53:41.284Z,101367.00
2022-11-05T16:56:24.701Z,101365.50
2022-11-05T16:59:13.368Z,101367.75
2022-11-05T17:01:57.934Z,101369.47
2022-11-05T17:04:41.375Z,101379.97
2022-11-05T17:07:24.800Z,101376.91
2022-11-05T17:10:08.167Z,101387.63
2022-11-05T17:12:52.206Z,101391.25
2022-11-05T17:15:35.863Z,101393.97
2022-11-05T17:18:20.881Z,101394.28
2022-11-05T17:21:04.980Z,101404.47
2022-11-05T17:23:48.403Z,101408.72
2022-11-05T17:26:31.772Z,101408.00
2022-11-05T17:29:15.621Z,101410.13
2022-11-05T17:31:59.049Z,101419.31
2022-11-05T17:34:42.538Z,101419.06
2022-11-05T17:37:25.919Z,101414.41
2022-11-05T17:40:16.950Z,101412.28
2022-11-05T17:43:00.325Z,101415.50
2022-11-05T17:45:51.859Z,101423.16
2022-11-05T17:48:36.738Z,101415.50
2022-11-05T17:51:20.997Z,101413.13
2022-11-05T17:54:04.405Z,101417.72
2022-11-05T17:56:47.815Z,101434.19
2022-11-05T17:59:31.601Z,101426.75
2022-11-05T18:02:15.094Z,101430.94
2022-11-05T18:04:58.644Z,101434.97
2022-11-05T18:07:42.808Z,101436.56
2022-11-05T18:10:26.292Z,101441.00
2022-11-05T18:13:10.283Z,101441.81
2022-11-05T18:15:55.080Z,101445.03
2022-11-05T18:18:38.498Z,101441.88
2022-11-05T18:21:21.895Z,101434.38
2022-11-05T18:24:06.477Z,101444.53
2022-11-05T18:26:50.586Z,101443.88
2022-11-05T18:29:33.937Z,101442.09
2022-11-05T18:32:17.623Z,101451.00
2022-11-05T18:35:01.210Z,101437.75
2022-11-05T18:37:44.780Z,101432.38
2022-11-05T18:40:28.138Z,101431.13
2022-11-05T18:43:11.993Z,101426.63
2022-11-05T18:45:58.528Z,101423.03
2022-11-05T18:48:41.926Z,101418.47
2022-11-05T18:51:26.920Z,101419.63
2022-11-05T18:54:10.377Z,101430.56
2022-11-05T18:56:53.925Z,101432.63
2022-11-05T18:59:39.377Z,101436.16
2022-11-05T19:02:23.344Z,101435.13
2022-11-05T19:05:27.979Z,101433.06
2022-11-05T19:08:14.275Z,101436.88
2022-11-05T19:10:58.704Z,101431.59
2022-11-05T19:13:43.270Z,101440.47
2022-11-05T19:16:28.968Z,101443.09
2022-11-05T19:19:12.366Z,101443.56
2022-11-05T19:21:56.421Z,101443.00
2022-11-05T19:24:39.957Z,101445.34
2022-11-05T19:27:23.444Z,101439.09
2022-11-05T19:30:07.302Z,101441.00
2022-11-05T19:32:50.900Z,101443.13
2022-11-05T19:35:39.960Z,101450.13
2022-11-05T19:38:26.249Z,101445.38
2022-11-05T19:41:18.300Z,101449.50
2022-11-05T19:44:02.034Z,101450.06
2022-11-05T19:46:45.873Z,101459.25
2022-11-05T19:49:29.362Z,101451.72
2022-11-05T19:52:13.152Z,101458.84
2022-11-05T19:54:56.577Z,101457.66
2022-11-05T19:57:39.951Z,101458.94
2022-11-05T20:00:23.305Z,101462.81
2022-11-05T20:03:06.782Z,101461.72
2022-11-05T20:05:50.228Z,101448.59
2022-11-05T20:08:43.483Z,101442.31
2022-11-05T20:11:37.803Z,101442.88
2022-11-05T20:14:21.217Z,101438.09
2022-11-05T20:17:04.581Z,101443.06
2022-11-05T20:19:48.226Z,101450.88
2022-11-05T20:22:31.620Z,101458.97
2022-11-05T20:25:15.092Z,101455.50
2022-11-05T20:27:58.491Z,101464.63
2022-11-05T20:30:41.866Z,101464.56
2022-11-05T20:33:29.421Z,101463.84
2022-11-05T20:36:18.680Z,101464.91
2022-11-05T20:39:02.976Z,101465.69
2022-11-05T20:41:46.390Z,101469.47
2022-11-05T20:44:29.839Z,101474.72
2022-11-05T20:47:13.305Z,101474.22
2022-11-05T20:49:58.471Z,101468.56
2022-11-05T20:52:41.882Z,101480.38
2022-11-05T20:55:25.268Z,101482.75
2022-11-05T20:58:09.312Z,101488.94
2022-11-05T21:00:55.929Z,101485.78
2022-11-05T21:03:39.902Z,101482.47
2022-11-05T21:06:23.738Z,101479.66
2022-11-05T21:09:07.254Z,101477.06
2022-11-05T21:12:09.369Z,101474.78
2022-11-05T21:14:53.460Z,101479.94
2022-11-05T21:17:37.611Z,101491.31
2022-11-05T21:20:21.500Z,101485.44
2022-11-05T21:23:04.882Z,101489.53
2022-11-05T21:25:48.463Z,101488.25
2022-11-05T21:28:32.421Z,101493.28
2022-11-05T21:31:16.063Z,101500.88
2022-11-05T21:33:59.455Z,101508.16
2022-11-05T21:36:43.732Z,101500.09
2022-11-05T21:39:27.857Z,101498.25
2022-11-05T21:42:11.253Z,101492.78
2022-11-05T21:44:59.990Z,101483.63
2022-11-05T21:47:44.191Z,101484.81
2022-11-05T21:50:46.735Z,101476.13
2022-11-05T21:53:48.746Z,101478.75
2022-11-05T21:56:51.654Z,101478.91
2022-11-05T21:59:55.233Z,101475.63
2022-11-05T22:02:39.080Z,101470.78
2022-11-05T22:05:22.624Z,101475.47
2022-11-05T22:08:06.028Z,101480.91
2022-11-05T22:10:49.417Z,101480.94
2022-11-05T22:13:32.815Z,101477.72
2022-11-05T22:16:16.214Z,101485.44
2022-11-05T22:19:00.001Z,101482.31
2022-11-05T22:21:43.887Z,101478.19
2022-11-05T22:24:28.269Z,101475.56
2022-11-05T22:27:15.936Z,101480.44
2022-11-05T22:29:59.300Z,101473.41
2022-11-05T22:32:42.795Z,101472.09
2022-11-05T22:35:26.396Z,101470.47
2022-11-05T22:38:10.230Z,101477.53
2022-11-05T22:40:53.961Z,101478.25
2022-11-05T22:43:38.077Z,101482.84
2022-11-05T22:46:25.700Z,101474.69
2022-11-05T22:49:09.765Z,101475.28
2022-11-05T22:51:53.323Z,101472.91
2022-11-05T22:54:39.465Z,101471.03
2022-11-05T22:57:23.032Z,101475.09
2022-11-05T23:00:17.270Z,101482.41
2022-11-05T23:03:01.350Z,101470.75
2022-11-05T23:05:44.869Z,101482.94
2022-11-05T23:08:47.068Z,101479.91
2022-11-05T23:11:38.082Z,101487.81
2022-11-05T23:14:21.462Z,101491.44
2022-11-05T23:17:23.293Z,101484.09
2022-11-05T23:20:31.584Z,101474.94
2022-11-05T23:23:36.266Z,101476.81
2022-11-05T23:26:38.223Z,101466.72
2022-11-05T23:29:26.143Z,101482.69
2022-11-05T23:32:24.589Z,101477.53
2022-11-05T23:35:08.778Z,101473.81
2022-11-05T23:38:10.998Z,101468.88
2022-11-05T23:41:12.965Z,101465.88
2022-11-05T23:44:25.513Z,101475.31
2022-11-05T23:47:27.415Z,101470.75
2022-11-05T23:50:10.843Z,101478.88
2022-11-05T23:52:55.650Z,101468.84
2022-11-05T23:55:39.647Z,101464.25
2022-11-05T23:58:23.018Z,101462.63
